Terminal Aerodrome Forecast
Issued by NWS

Home | Current Version | Previous Version | Graphics & Text | Print | Product List | Glossary On
Versions: 1 2 3 4 5 6 7 8 9 10 11 12 13 14 15 16 17 18 19 20 21 22 23 24 25 26 27 28 29 30 31 32 33 34 35
000
FTUS43 KLOT 301236 AAA
TAFORD
TAF AMD
KORD 301236Z 3013/0118 03012KT P6SM VCSH SCT008 OVC013
      TEMPO 3013/3015 4SM -DZ BKN008
     FM301600 05013G20KT P6SM VCSH SCT010 BKN020
     FM302200 04014G21KT 6SM -SHRA SCT010 OVC018
     FM010100 03012KT 3SM -SHRA BKN008 OVC012
     FM010600 03009KT 5SM BR SCT007 BKN012
     FM011100 02007KT 6SM -SHRA OVC010=

USA.gov is the U.S. government's official web portal to all federal, state and local government web resources and services.